M/T Vemaoil Xi — 9HWD7 — position and weather

sailwx.info

Track history (hours):
 
Tides and Currents Weather Stations Pressure Air Temp Water Temp Dewpoint Dewpoint Depression Visibility Wind Speed Wind Dir Waves Ship Positions

M/T Vemaoil Xi

Last reported at 2016-Jun-29 21:33 UTC. Time now 2016-Jun-29 21:53 UTC.
Position N 35°53' E 014°30'.

Length 105 m; draft 6.6 m.

Type: Tanker. MMSI: 215631000.

Date/timePositionNaut miles runAvg speedWind from/ knotsBaromVisibWave heightAir tempDewpointWater temp
2016-Jun-29 21:33N 35°53' E 014°30'0 0.0
2016-Jun-29 20:33N 35°53' E 014°30'0 0.0
2016-Jun-29 19:33N 35°53' E 014°30'0 0.0
2016-Jun-29 18:33N 35°53' E 014°30'0 0.0
2016-Jun-29 17:33N 35°53' E 014°30'0 0.0
2016-Jun-29 16:33N 35°53' E 014°30'0 0.0
2016-Jun-29 15:33N 35°53' E 014°30'0 0.0
2016-Jun-29 14:33N 35°53' E 014°30'2 2.3
2016-Jun-29 13:33N 35°55' E 014°32'2 1.7
2016-Jun-29 12:33N 35°54' E 014°34'4 3.8
2016-Jun-29 11:33N 35°50' E 014°36'0 0.0
2016-Jun-29 10:33N 35°50' E 014°36'0 0.0
2016-Jun-29 09:33N 35°50' E 014°36'3 2.8
2016-Jun-29 08:33N 35°49' E 014°32'0 0.3
2016-Jun-29 07:33N 35°49' E 014°32'0 0.0
2016-Jun-29 06:33N 35°49' E 014°32'0 0.0
2016-Jun-29 05:33N 35°49' E 014°32'0 0.0
2016-Jun-29 04:29N 35°49' E 014°32'4 0.5
2016-Jun-28 21:29N 35°51' E 014°36'5 5.6
2016-Jun-28 20:33N 35°54' E 014°31'1 1.0
2016-Jun-28 19:33N 35°53' E 014°30'0 0.0
2016-Jun-28 18:33N 35°53' E 014°30'0 0.0
2016-Jun-28 17:33N 35°53' E 014°30'0 0.0
2016-Jun-28 13:33N 35°53' E 014°30'0 0.1
2016-Jun-28 12:33N 35°53' E 014°30'4 4.1
2016-Jun-28 11:33N 35°53' E 014°35'3 2.7
2016-Jun-28 10:33N 35°50' E 014°36'0 0.0
2016-Jun-28 09:33N 35°50' E 014°36'0 0.0
2016-Jun-28 08:33N 35°50' E 014°36'3 2.7
2016-Jun-28 07:33N 35°50' E 014°39'6 5.9
2016-Jun-28 06:33N 35°52' E 014°46'1 0.3
2016-Jun-28 04:33N 35°52' E 014°47'0 0.0
2016-Jun-28 03:33N 35°52' E 014°47'0 0.0
2016-Jun-28 02:33N 35°52' E 014°47'0 0.0
2016-Jun-28 01:33N 35°52' E 014°47'0 0.0
2016-Jun-28 00:33N 35°52' E 014°47'0 0.0
2016-Jun-27 23:33N 35°52' E 014°47'0 0.0
2016-Jun-27 22:33N 35°52' E 014°47'1 1.5
2016-Jun-27 21:33N 35°51' E 014°45'6 6.4
2016-Jun-27 20:33N 35°49' E 014°38'4 4.1
2016-Jun-27 19:31N 35°49' E 014°33'0 0.0
2016-Jun-27 18:16N 35°49' E 014°33'0 0.0
2016-Jun-27 17:31N 35°49' E 014°33'0 0.0
2016-Jun-27 16:25N 35°49' E 014°33'0 0.0
2016-Jun-27 15:25N 35°49' E 014°33'0 0.0
2016-Jun-27 14:16N 35°49' E 014°33'0 0.0
2016-Jun-27 12:13N 35°49' E 014°33'0 0.0
2016-Jun-27 11:31N 35°49' E 014°33'0 0.0
2016-Jun-27 10:04N 35°49' E 014°33'0 0.0
2016-Jun-27 06:31N 35°49' E 014°33'0 0.0
2016-Jun-27 05:31N 35°49' E 014°33'0 0.0
2016-Jun-27 04:31N 35°49' E 014°33'0 0.0
2016-Jun-27 03:13N 35°49' E 014°33'0 0.0
2016-Jun-27 02:25N 35°49' E 014°33'0 0.0
2016-Jun-27 01:31N 35°49' E 014°33'2 0.5
2016-Jun-26 21:28N 35°49' E 014°35'0 0.0
2016-Jun-26 20:28N 35°49' E 014°35'0 0.1
2016-Jun-26 19:31N 35°49' E 014°35'0 0.0
2016-Jun-26 18:10N 35°49' E 014°35'0 0.0
2016-Jun-26 17:19N 35°49' E 014°35'0 0.1
2016-Jun-26 16:31N 35°49' E 014°35'0 0.1
2016-Jun-26 15:31N 35°49' E 014°35'0 0.0
2016-Jun-26 14:31N 35°49' E 014°35'0 0.0
2016-Jun-26 13:28N 35°49' E 014°35'0 0.0
2016-Jun-26 12:28N 35°49' E 014°35'0 0.0
2016-Jun-26 11:22N 35°49' E 014°35'0 0.0
2016-Jun-26 10:22N 35°49' E 014°35'0 0.0
2016-Jun-26 09:31N 35°49' E 014°35'0 0.0
2016-Jun-26 08:31N 35°49' E 014°35'0 0.0
2016-Jun-26 04:31N 35°49' E 014°35'0 0.0
2016-Jun-25 17:21N 35°49' E 014°35'0 0.0
2016-Jun-25 16:15N 35°49' E 014°35'0 0.1
2016-Jun-25 15:25N 35°49' E 014°35'5 5.3
2016-Jun-25 14:33N 35°53' E 014°35'1 0.2
2016-Jun-25 06:33N 35°54' E 014°33'5 5.3
2016-Jun-25 05:33N 35°55' E 014°40'4 4.4
2016-Jun-25 04:32N 35°55' E 014°45'0 0.1
2016-Jun-25 03:32N 35°55' E 014°45'0 0.0
2016-Jun-25 02:32N 35°55' E 014°45'1 0.6
2016-Jun-25 01:28N 35°55' E 014°46'0 0.0
2016-Jun-25 00:31N 35°55' E 014°46'0 0.0
2016-Jun-24 23:34N 35°55' E 014°46'0 0.0
2016-Jun-24 22:31N 35°55' E 014°46'0 0.0
2016-Jun-24 21:25N 35°55' E 014°46'0 0.0
2016-Jun-24 20:31N 35°55' E 014°46'0 0.0
2016-Jun-24 19:28N 35°55' E 014°46'0 0.5
2016-Jun-24 18:33N 35°54' E 014°46'2 2.1
2016-Jun-24 17:31N 35°52' E 014°45'0 0.0
2016-Jun-24 16:31N 35°52' E 014°45'0 0.0
2016-Jun-24 14:19N 35°52' E 014°45'0 0.0
2016-Jun-24 13:10N 35°52' E 014°45'0 0.3
2016-Jun-24 12:25N 35°52' E 014°45'0 0.1
2016-Jun-24 08:34N 35°52' E 014°45'1 1.2
2016-Jun-24 07:33N 35°53' E 014°46'0 0.0
2016-Jun-24 06:33N 35°53' E 014°46'0 0.1
2016-Jun-24 04:33N 35°52' E 014°46'5 4.9
2016-Jun-24 03:33N 35°50' E 014°41'6 0.3
2016-Jun-23 07:32N 35°49' E 014°35'9 4.6
2016-Jun-23 05:32N 35°52' E 014°45'0 0.0
2016-Jun-23 02:32N 35°52' E 014°45'0 0.0
2016-Jun-23 01:32N 35°52' E 014°45'0 0.0
2016-Jun-23 00:32N 35°52' E 014°45'0 0.0
2016-Jun-22 23:29N 35°52' E 014°45'0 0.0
2016-Jun-22 22:29N 35°52' E 014°45'0 0.3
2016-Jun-22 21:21N 35°53' E 014°45'0 0.1
2016-Jun-22 20:26N 35°52' E 014°45'0 0.0
2016-Jun-22 19:33N 35°52' E 014°45'0 0.0
2016-Jun-22 18:26N 35°52' E 014°45'0 0.1
2016-Jun-22 17:18N 35°53' E 014°45'0 0.1
2016-Jun-22 16:33N 35°53' E 014°45'0 0.0
2016-Jun-22 15:33N 35°53' E 014°45'0 0.0
2016-Jun-22 14:31N 35°53' E 014°45'2 2.0
2016-Jun-22 13:29N 35°52' E 014°47'0 0.0
2016-Jun-22 12:32N 35°52' E 014°47'0 0.0
2016-Jun-22 11:29N 35°52' E 014°47'0 0.0
2016-Jun-22 10:32N 35°52' E 014°47'0 0.0
2016-Jun-22 09:32N 35°52' E 014°47'0 0.0
2016-Jun-22 06:08N 35°52' E 014°47'0 0.1
2016-Jun-22 03:32N 35°53' E 014°47'6 6.2
2016-Jun-22 02:33N 35°54' E 014°40'7 6.6
2016-Jun-22 01:33N 35°54' E 014°32'0 0.0
2016-Jun-21 15:26N 35°54' E 014°31'5 5.6
2016-Jun-21 14:33N 35°51' E 014°36'2 0.1
2016-Jun-20 21:33N 35°49' E 014°35'  
Track history (hours):
 
Tides and Currents Weather Stations Pressure Air Temp Water Temp Dewpoint Dewpoint Depression Visibility Wind Speed Wind Dir Waves Ship Positions

M/T Vemaoil Xi

Last reported at 2016-Jun-29 21:33 UTC. Time now 2016-Jun-29 21:53 UTC.
Position N 35°53' E 014°30'.

Length 105 m; draft 6.6 m.

Type: Tanker. MMSI: 215631000.

Date/timePositionNaut miles runAvg speedWind from/ knotsBaromVisibWave heightAir tempDewpointWater temp
2016-Jun-29 21:33N 35°53' E 014°30'0 0.0
2016-Jun-29 20:33N 35°53' E 014°30'0 0.0
2016-Jun-29 19:33N 35°53' E 014°30'0 0.0
2016-Jun-29 18:33N 35°53' E 014°30'0 0.0
2016-Jun-29 17:33N 35°53' E 014°30'0 0.0
2016-Jun-29 16:33N 35°53' E 014°30'0 0.0
2016-Jun-29 15:33N 35°53' E 014°30'0 0.0
2016-Jun-29 14:33N 35°53' E 014°30'2 2.3
2016-Jun-29 13:33N 35°55' E 014°32'2 1.7
2016-Jun-29 12:33N 35°54' E 014°34'4 3.8
2016-Jun-29 11:33N 35°50' E 014°36'0 0.0
2016-Jun-29 10:33N 35°50' E 014°36'0 0.0
2016-Jun-29 09:33N 35°50' E 014°36'3 2.8
2016-Jun-29 08:33N 35°49' E 014°32'0 0.3
2016-Jun-29 07:33N 35°49' E 014°32'0 0.0
2016-Jun-29 06:33N 35°49' E 014°32'0 0.0
2016-Jun-29 05:33N 35°49' E 014°32'0 0.0
2016-Jun-29 04:29N 35°49' E 014°32'4 0.5
2016-Jun-28 21:29N 35°51' E 014°36'5 5.6
2016-Jun-28 20:33N 35°54' E 014°31'1 1.0
2016-Jun-28 19:33N 35°53' E 014°30'0 0.0
2016-Jun-28 18:33N 35°53' E 014°30'0 0.0
2016-Jun-28 17:33N 35°53' E 014°30'0 0.0
2016-Jun-28 13:33N 35°53' E 014°30'0 0.1
2016-Jun-28 12:33N 35°53' E 014°30'4 4.1
2016-Jun-28 11:33N 35°53' E 014°35'3 2.7
2016-Jun-28 10:33N 35°50' E 014°36'0 0.0
2016-Jun-28 09:33N 35°50' E 014°36'0 0.0
2016-Jun-28 08:33N 35°50' E 014°36'3 2.7
2016-Jun-28 07:33N 35°50' E 014°39'6 5.9
2016-Jun-28 06:33N 35°52' E 014°46'1 0.3
2016-Jun-28 04:33N 35°52' E 014°47'0 0.0
2016-Jun-28 03:33N 35°52' E 014°47'0 0.0
2016-Jun-28 02:33N 35°52' E 014°47'0 0.0
2016-Jun-28 01:33N 35°52' E 014°47'0 0.0
2016-Jun-28 00:33N 35°52' E 014°47'0 0.0
2016-Jun-27 23:33N 35°52' E 014°47'0 0.0
2016-Jun-27 22:33N 35°52' E 014°47'1 1.5
2016-Jun-27 21:33N 35°51' E 014°45'6 6.4
2016-Jun-27 20:33N 35°49' E 014°38'4 4.1
2016-Jun-27 19:31N 35°49' E 014°33'0 0.0
2016-Jun-27 18:16N 35°49' E 014°33'0 0.0
2016-Jun-27 17:31N 35°49' E 014°33'0 0.0
2016-Jun-27 16:25N 35°49' E 014°33'0 0.0
2016-Jun-27 15:25N 35°49' E 014°33'0 0.0
2016-Jun-27 14:16N 35°49' E 014°33'0 0.0
2016-Jun-27 12:13N 35°49' E 014°33'0 0.0
2016-Jun-27 11:31N 35°49' E 014°33'0 0.0
2016-Jun-27 10:04N 35°49' E 014°33'0 0.0
2016-Jun-27 06:31N 35°49' E 014°33'0 0.0
2016-Jun-27 05:31N 35°49' E 014°33'0 0.0
2016-Jun-27 04:31N 35°49' E 014°33'0 0.0
2016-Jun-27 03:13N 35°49' E 014°33'0 0.0
2016-Jun-27 02:25N 35°49' E 014°33'0 0.0
2016-Jun-27 01:31N 35°49' E 014°33'2 0.5
2016-Jun-26 21:28N 35°49' E 014°35'0 0.0
2016-Jun-26 20:28N 35°49' E 014°35'0 0.1
2016-Jun-26 19:31N 35°49' E 014°35'0 0.0
2016-Jun-26 18:10N 35°49' E 014°35'0 0.0
2016-Jun-26 17:19N 35°49' E 014°35'0 0.1
2016-Jun-26 16:31N 35°49' E 014°35'0 0.1
2016-Jun-26 15:31N 35°49' E 014°35'0 0.0
2016-Jun-26 14:31N 35°49' E 014°35'0 0.0
2016-Jun-26 13:28N 35°49' E 014°35'0 0.0
2016-Jun-26 12:28N 35°49' E 014°35'0 0.0
2016-Jun-26 11:22N 35°49' E 014°35'0 0.0
2016-Jun-26 10:22N 35°49' E 014°35'0 0.0
2016-Jun-26 09:31N 35°49' E 014°35'0 0.0
2016-Jun-26 08:31N 35°49' E 014°35'0 0.0
2016-Jun-26 04:31N 35°49' E 014°35'0 0.0
2016-Jun-25 17:21N 35°49' E 014°35'0 0.0
2016-Jun-25 16:15N 35°49' E 014°35'0 0.1
2016-Jun-25 15:25N 35°49' E 014°35'5 5.3
2016-Jun-25 14:33N 35°53' E 014°35'1 0.2
2016-Jun-25 06:33N 35°54' E 014°33'5 5.3
2016-Jun-25 05:33N 35°55' E 014°40'4 4.4
2016-Jun-25 04:32N 35°55' E 014°45'0 0.1
2016-Jun-25 03:32N 35°55' E 014°45'0 0.0
2016-Jun-25 02:32N 35°55' E 014°45'1 0.6
2016-Jun-25 01:28N 35°55' E 014°46'0 0.0
2016-Jun-25 00:31N 35°55' E 014°46'0 0.0
2016-Jun-24 23:34N 35°55' E 014°46'0 0.0
2016-Jun-24 22:31N 35°55' E 014°46'0 0.0
2016-Jun-24 21:25N 35°55' E 014°46'0 0.0
2016-Jun-24 20:31N 35°55' E 014°46'0 0.0
2016-Jun-24 19:28N 35°55' E 014°46'0 0.5
2016-Jun-24 18:33N 35°54' E 014°46'2 2.1
2016-Jun-24 17:31N 35°52' E 014°45'0 0.0
2016-Jun-24 16:31N 35°52' E 014°45'0 0.0
2016-Jun-24 14:19N 35°52' E 014°45'0 0.0
2016-Jun-24 13:10N 35°52' E 014°45'0 0.3
2016-Jun-24 12:25N 35°52' E 014°45'0 0.1
2016-Jun-24 08:34N 35°52' E 014°45'1 1.2
2016-Jun-24 07:33N 35°53' E 014°46'0 0.0
2016-Jun-24 06:33N 35°53' E 014°46'0 0.1
2016-Jun-24 04:33N 35°52' E 014°46'5 4.9
2016-Jun-24 03:33N 35°50' E 014°41'6 0.3
2016-Jun-23 07:32N 35°49' E 014°35'9 4.6
2016-Jun-23 05:32N 35°52' E 014°45'0 0.0
2016-Jun-23 02:32N 35°52' E 014°45'0 0.0
2016-Jun-23 01:32N 35°52' E 014°45'0 0.0
2016-Jun-23 00:32N 35°52' E 014°45'0 0.0
2016-Jun-22 23:29N 35°52' E 014°45'0 0.0
2016-Jun-22 22:29N 35°52' E 014°45'0 0.3
2016-Jun-22 21:21N 35°53' E 014°45'0 0.1
2016-Jun-22 20:26N 35°52' E 014°45'0 0.0
2016-Jun-22 19:33N 35°52' E 014°45'0 0.0
2016-Jun-22 18:26N 35°52' E 014°45'0 0.1
2016-Jun-22 17:18N 35°53' E 014°45'0 0.1
2016-Jun-22 16:33N 35°53' E 014°45'0 0.0
2016-Jun-22 15:33N 35°53' E 014°45'0 0.0
2016-Jun-22 14:31N 35°53' E 014°45'2 2.0
2016-Jun-22 13:29N 35°52' E 014°47'0 0.0
2016-Jun-22 12:32N 35°52' E 014°47'0 0.0
2016-Jun-22 11:29N 35°52' E 014°47'0 0.0
2016-Jun-22 10:32N 35°52' E 014°47'0 0.0
2016-Jun-22 09:32N 35°52' E 014°47'0 0.0
2016-Jun-22 06:08N 35°52' E 014°47'0 0.1
2016-Jun-22 03:32N 35°53' E 014°47'6 6.2
2016-Jun-22 02:33N 35°54' E 014°40'7 6.6
2016-Jun-22 01:33N 35°54' E 014°32'0 0.0
2016-Jun-21 15:26N 35°54' E 014°31'5 5.6
2016-Jun-21 14:33N 35°51' E 014°36'2 0.1
2016-Jun-20 21:33N 35°49' E 014°35'  

Dump ship's entire track history